^^
Station Historical Data
Daily Summary for January 23, 2018 Units:  Both    English   Metric
« Previous Day
Next Day »
Daily Weekly Monthly Yearly Custom
  High: Low: Average:
Temperature: TemperatureF °F /  -17.8 °C 72.9 °F /  22.7 °C 78.7 °F /  25.9 °C
Dew Point: DewpointF °F /  -17.8 °C 24.8 °F /  -4 °C 37.1 °F /  2.8 °C
Humidity: Humidity% 16% 22%
Wind Speed: WindSpeedMPHmph /  0km/h - -22.9mph /  -36.9km/h
Wind Gust: WindSpeedGustMPHmph /  0km/h - -
Wind- -
Pressure: PressureIn in /  0 hPa 29.48 in /  998.2 hPa -
Precipitation: 0.00 in /  0 mm    
Historical Graphs
 
 
Tabular Data for January 23, 2018
Time Temperature Dew Point Pressure Wind Wind Speed Wind Gust Humidity Rainfall Rate (Hourly) solar Conditions
TemperatureF °F /  -17.8 °C DewpointF °F /  -17.8 °C PressureInin /  0hPa Calm     Humidity% HourlyPrecipInin /  0mm SoftwareType W/m2 Conditions
08:43 73.8 °F /  23.2 °C 24.8 °F /  -4 °C 29.57in /  1001.2hPa North -999.9mph /  -1609.1km/h -999.0mph /  -1607.7km/h 16% 0.00in /  0mm meteobridge W/m2
08:49 73.6 °F /  23.1 °C 27.5 °F /  -2.5 °C 29.57in /  1001.2hPa SSE 4.0mph /  6.4km/h 4.0mph /  6.4km/h 18% 0.00in /  0mm meteobridge W/m2
08:55 73.0 °F /  22.8 °C 27.0 °F /  -2.8 °C 29.58in /  1001.6hPa SSE 0.9mph /  1.4km/h 4.0mph /  6.4km/h 18% 0.00in /  0mm meteobridge W/m2
09:01 73.8 °F /  23.2 °C 27.7 °F /  -2.4 °C 29.58in /  1001.6hPa SSE 0.9mph /  1.4km/h 3.0mph /  4.8km/h 18% 0.00in /  0mm meteobridge W/m2
09:08 74.5 °F /  23.6 °C 26.8 °F /  -2.9 °C 29.58in /  1001.6hPa Calm   3.0mph /  4.8km/h 17% 0.00in /  0mm meteobridge W/m2
09:14 74.8 °F /  23.8 °C 28.4 °F /  -2 °C 29.58in /  1001.6hPa Calm   3.0mph /  4.8km/h 18% 0.00in /  0mm meteobridge W/m2
09:32 73.6 °F /  23.1 °C 28.8 °F /  -1.8 °C 29.59in /  1001.9hPa NE 6.0mph /  9.7km/h 11.0mph /  17.7km/h 19% 0.00in /  0mm meteobridge W/m2
09:38 72.9 °F /  22.7 °C 29.5 °F /  -1.4 °C 29.59in /  1001.9hPa NNE 8.1mph /  13km/h 10.0mph /  16.1km/h 20% 0.00in /  0mm meteobridge W/m2
09:44 72.9 °F /  22.7 °C 29.5 °F /  -1.4 °C 29.59in /  1001.9hPa North 4.9mph /  7.9km/h 10.0mph /  16.1km/h 20% 0.00in /  0mm meteobridge W/m2
09:50 73.2 °F /  22.9 °C 29.7 °F /  -1.3 °C 29.59in /  1001.9hPa NNE 6.0mph /  9.7km/h 9.0mph /  14.5km/h 20% 0.00in /  0mm meteobridge W/m2
09:56 74.1 °F /  23.4 °C 30.6 °F /  -0.8 °C 29.59in /  1001.9hPa North 4.0mph /  6.4km/h 5.0mph /  8km/h 20% 0.00in /  0mm meteobridge W/m2
10:02 75.0 °F /  23.9 °C 30.0 °F /  -1.1 °C 29.59in /  1001.9hPa NNE 2.0mph /  3.2km/h 8.0mph /  12.9km/h 19% 0.00in /  0mm meteobridge W/m2
10:08 75.0 °F /  23.9 °C 30.0 °F /  -1.1 °C 29.59in /  1001.9hPa Calm   5.0mph /  8km/h 19% 0.00in /  0mm meteobridge W/m2
10:14 75.6 °F /  24.2 °C 30.4 °F /  -0.9 °C 29.59in /  1001.9hPa SW 0.9mph /  1.4km/h 3.0mph /  4.8km/h 19% 0.00in /  0mm meteobridge W/m2
10:21 77.4 °F /  25.2 °C 31.8 °F /  -0.1 °C 29.59in /  1001.9hPa Calm   1.0mph /  1.6km/h 19% 0.00in /  0mm meteobridge W/m2
10:28 78.3 °F /  25.7 °C 32.5 °F /  0.3 °C 29.59in /  1001.9hPa SE 4.9mph /  7.9km/h 5.0mph /  8km/h 19% 0.00in /  0mm meteobridge W/m2
10:34 78.6 °F /  25.9 °C 36.7 °F /  2.6 °C 29.59in /  1001.9hPa South 6.0mph /  9.7km/h 8.0mph /  12.9km/h 22% 0.00in /  0mm meteobridge W/m2
10:40 78.1 °F /  25.6 °C 36.1 °F /  2.3 °C 29.59in /  1001.9hPa SSE 4.9mph /  7.9km/h 14.0mph /  22.5km/h 22% 0.00in /  0mm meteobridge W/m2
10:46 78.3 °F /  25.7 °C 36.3 °F /  2.4 °C 29.59in /  1001.9hPa SSE 2.0mph /  3.2km/h 9.0mph /  14.5km/h 22% 0.00in /  0mm meteobridge W/m2
10:52 78.1 °F /  25.6 °C 37.2 °F /  2.9 °C 29.58in /  1001.6hPa South 4.0mph /  6.4km/h 15.0mph /  24.1km/h 23% 0.00in /  0mm meteobridge W/m2
10:58 78.4 °F /  25.8 °C 37.6 °F /  3.1 °C 29.59in /  1001.9hPa South 4.9mph /  7.9km/h 11.0mph /  17.7km/h 23% 0.00in /  0mm meteobridge W/m2
11:04 78.6 °F /  25.9 °C 36.7 °F /  2.6 °C 29.59in /  1001.9hPa SSW 10.1mph /  16.3km/h 12.0mph /  19.3km/h 22% 0.00in /  0mm meteobridge W/m2
11:10 78.4 °F /  25.8 °C 36.5 °F /  2.5 °C 29.58in /  1001.6hPa SSE 8.9mph /  14.3km/h 9.0mph /  14.5km/h 22% 0.00in /  0mm meteobridge W/m2
11:17 79.2 °F /  26.2 °C 35.8 °F /  2.1 °C 29.58in /  1001.6hPa South 8.9mph /  14.3km/h 16.0mph /  25.7km/h 21% 0.00in /  0mm meteobridge W/m2
11:29 79.5 °F /  26.4 °C 36.1 °F /  2.3 °C 29.58in /  1001.6hPa South 2.9mph /  4.7km/h 7.0mph /  11.3km/h 21% 0.00in /  0mm meteobridge W/m2
11:35 79.3 °F /  26.3 °C 37.2 °F /  2.9 °C 29.58in /  1001.6hPa SSW 6.9mph /  11.1km/h 11.0mph /  17.7km/h 22% 0.00in /  0mm meteobridge W/m2
11:47 79.3 °F /  26.3 °C 37.2 °F /  2.9 °C 29.58in /  1001.6hPa South 4.0mph /  6.4km/h 13.0mph /  20.9km/h 22% 0.00in /  0mm meteobridge W/m2
11:53 79.0 °F /  26.1 °C 36.9 °F /  2.7 °C 29.58in /  1001.6hPa SSE 12.1mph /  19.5km/h 18.0mph /  29km/h 22% 0.00in /  0mm meteobridge W/m2
11:59 79.3 °F /  26.3 °C 38.3 °F /  3.5 °C 29.57in /  1001.2hPa SSE 4.0mph /  6.4km/h 14.0mph /  22.5km/h 23% 0.00in /  0mm meteobridge W/m2
12:05 80.4 °F /  26.9 °C 38.1 °F /  3.4 °C 29.57in /  1001.2hPa SSW 8.9mph /  14.3km/h 10.0mph /  16.1km/h 22% 0.00in /  0mm meteobridge W/m2
12:11 80.6 °F /  27 °C 37.0 °F /  2.8 °C 29.57in /  1001.2hPa South 8.1mph /  13km/h 20.0mph /  32.2km/h 21% 0.00in /  0mm meteobridge W/m2
12:18 81.3 °F /  27.4 °C 37.6 °F /  3.1 °C 29.57in /  1001.2hPa South 8.9mph /  14.3km/h 16.0mph /  25.7km/h 21% 0.00in /  0mm meteobridge W/m2
12:24 81.1 °F /  27.3 °C 37.6 °F /  3.1 °C 29.57in /  1001.2hPa South 4.9mph /  7.9km/h 14.0mph /  22.5km/h 21% 0.00in /  0mm meteobridge W/m2
12:30 80.8 °F /  27.1 °C 36.0 °F /  2.2 °C 29.57in /  1001.2hPa SSW 10.1mph /  16.3km/h 17.0mph /  27.4km/h 20% 0.00in /  0mm meteobridge W/m2
12:36 80.1 °F /  26.7 °C 36.7 °F /  2.6 °C 29.57in /  1001.2hPa SE 8.9mph /  14.3km/h 14.0mph /  22.5km/h 21% 0.00in /  0mm meteobridge W/m2
12:54 80.2 °F /  26.8 °C 36.7 °F /  2.6 °C 29.57in /  1001.2hPa South 2.9mph /  4.7km/h 14.0mph /  22.5km/h 21% 0.00in /  0mm meteobridge W/m2
13:00 82.2 °F /  27.9 °C 37.2 °F /  2.9 °C 29.56in /  1000.9hPa SE 6.0mph /  9.7km/h 6.0mph /  9.7km/h 20% 0.00in /  0mm meteobridge W/m2
13:06 81.7 °F /  27.6 °C 37.9 °F /  3.3 °C 29.56in /  1000.9hPa South 11.0mph /  17.7km/h 15.0mph /  24.1km/h 21% 0.00in /  0mm meteobridge W/m2
13:12 81.3 °F /  27.4 °C 36.5 °F /  2.5 °C 29.55in /  1000.6hPa SSW 4.0mph /  6.4km/h 10.0mph /  16.1km/h 20% 0.00in /  0mm meteobridge W/m2
13:18 81.7 °F /  27.6 °C 37.9 °F /  3.3 °C 29.55in /  1000.6hPa SSE 6.0mph /  9.7km/h 14.0mph /  22.5km/h 21% 0.00in /  0mm meteobridge W/m2
13:24 81.7 °F /  27.6 °C 37.9 °F /  3.3 °C 29.54in /  1000.2hPa SSE 11.0mph /  17.7km/h 13.0mph /  20.9km/h 21% 0.00in /  0mm meteobridge W/m2
13:31 81.1 °F /  27.3 °C 37.6 °F /  3.1 °C 29.55in /  1000.6hPa SSE 8.9mph /  14.3km/h 12.0mph /  19.3km/h 21% 0.00in /  0mm meteobridge W/m2
13:37 81.1 °F /  27.3 °C 38.7 °F /  3.7 °C 29.55in /  1000.6hPa SE 10.1mph /  16.3km/h 17.0mph /  27.4km/h 22% 0.00in /  0mm meteobridge W/m2
13:43 80.4 °F /  26.9 °C 36.9 °F /  2.7 °C 29.55in /  1000.6hPa SSE 0.9mph /  1.4km/h 12.0mph /  19.3km/h 21% 0.00in /  0mm meteobridge W/m2
13:49 81.9 °F /  27.7 °C 38.1 °F /  3.4 °C 29.54in /  1000.2hPa WSW 4.9mph /  7.9km/h 11.0mph /  17.7km/h 21% 0.00in /  0mm meteobridge W/m2
13:55 82.9 °F /  28.3 °C 39.0 °F /  3.9 °C 29.54in /  1000.2hPa SSE 13.0mph /  20.9km/h 15.0mph /  24.1km/h 21% 0.00in /  0mm meteobridge W/m2
14:01 82.9 °F /  28.3 °C 39.0 °F /  3.9 °C 29.54in /  1000.2hPa SW 10.1mph /  16.3km/h 16.0mph /  25.7km/h 21% 0.00in /  0mm meteobridge W/m2
14:08 82.9 °F /  28.3 °C 40.1 °F /  4.5 °C 29.54in /  1000.2hPa South 4.0mph /  6.4km/h 15.0mph /  24.1km/h 22% 0.00in /  0mm meteobridge W/m2
14:14 83.1 °F /  28.4 °C 40.3 °F /  4.6 °C 29.53in /  999.9hPa SSE 8.1mph /  13km/h 20.0mph /  32.2km/h 22% 0.00in /  0mm meteobridge W/m2
14:20 82.2 °F /  27.9 °C 39.6 °F /  4.2 °C 29.54in /  1000.2hPa SW 11.0mph /  17.7km/h 15.0mph /  24.1km/h 22% 0.00in /  0mm meteobridge W/m2
14:26 81.5 °F /  27.5 °C 40.1 °F /  4.5 °C 29.53in /  999.9hPa SSE 4.0mph /  6.4km/h 12.0mph /  19.3km/h 23% 0.00in /  0mm meteobridge W/m2
14:32 81.9 °F /  27.7 °C 40.5 °F /  4.7 °C 29.53in /  999.9hPa SE 15.0mph /  24.1km/h 17.0mph /  27.4km/h 23% 0.00in /  0mm meteobridge W/m2
14:38 83.7 °F /  28.7 °C 40.8 °F /  4.9 °C 29.52in /  999.5hPa SSW 11.0mph /  17.7km/h 11.0mph /  17.7km/h 22% 0.00in /  0mm meteobridge W/m2
14:44 83.7 °F /  28.7 °C 41.9 °F /  5.5 °C 29.52in /  999.5hPa South 19.0mph /  30.6km/h 20.0mph /  32.2km/h 23% 0.00in /  0mm meteobridge W/m2
14:50 82.6 °F /  28.1 °C 41.0 °F /  5 °C 29.52in /  999.5hPa SE 4.0mph /  6.4km/h 12.0mph /  19.3km/h 23% 0.00in /  0mm meteobridge W/m2
14:56 83.3 °F /  28.5 °C 41.7 °F /  5.4 °C 29.52in /  999.5hPa ESE 6.0mph /  9.7km/h 14.0mph /  22.5km/h 23% 0.00in /  0mm meteobridge W/m2
15:03 83.7 °F /  28.7 °C 41.9 °F /  5.5 °C 29.52in /  999.5hPa SSE 6.0mph /  9.7km/h 20.0mph /  32.2km/h 23% 0.00in /  0mm meteobridge W/m2
15:09 82.9 °F /  28.3 °C 41.4 °F /  5.2 °C 29.51in /  999.2hPa South 10.1mph /  16.3km/h 15.0mph /  24.1km/h 23% 0.00in /  0mm meteobridge W/m2
15:15 83.3 °F /  28.5 °C 41.7 °F /  5.4 °C 29.51in /  999.2hPa SSE 12.1mph /  19.5km/h 19.0mph /  30.6km/h 23% 0.00in /  0mm meteobridge W/m2
15:21 83.1 °F /  28.4 °C 41.5 °F /  5.3 °C 29.51in /  999.2hPa SSE 10.1mph /  16.3km/h 16.0mph /  25.7km/h 23% 0.00in /  0mm meteobridge W/m2
15:27 83.1 °F /  28.4 °C 41.5 °F /  5.3 °C 29.50in /  998.9hPa South 6.9mph /  11.1km/h 16.0mph /  25.7km/h 23% 0.00in /  0mm meteobridge W/m2
15:33 82.8 °F /  28.2 °C 42.3 °F /  5.7 °C 29.51in /  999.2hPa SSE 6.9mph /  11.1km/h 13.0mph /  20.9km/h 24% 0.00in /  0mm meteobridge W/m2
15:39 83.7 °F /  28.7 °C 43.0 °F /  6.1 °C 29.50in /  998.9hPa SSW 10.1mph /  16.3km/h 15.0mph /  24.1km/h 24% 0.00in /  0mm meteobridge W/m2
15:45 83.7 °F /  28.7 °C 43.0 °F /  6.1 °C 29.50in /  998.9hPa SSE 12.1mph /  19.5km/h 15.0mph /  24.1km/h 24% 0.00in /  0mm meteobridge W/m2
15:51 83.3 °F /  28.5 °C 42.8 °F /  6 °C 29.50in /  998.9hPa South 17.0mph /  27.4km/h 24.0mph /  38.6km/h 24% 0.00in /  0mm meteobridge W/m2
15:58 83.8 °F /  28.8 °C 43.2 °F /  6.2 °C 29.49in /  998.5hPa SSE 13.0mph /  20.9km/h 13.0mph /  20.9km/h 24% 0.00in /  0mm meteobridge W/m2
16:04 82.2 °F /  27.9 °C 41.9 °F /  5.5 °C 29.49in /  998.5hPa South 6.0mph /  9.7km/h 13.0mph /  20.9km/h 24% 0.00in /  0mm meteobridge W/m2
16:10 82.0 °F /  27.8 °C 41.7 °F /  5.4 °C 29.49in /  998.5hPa SSE 6.0mph /  9.7km/h 19.0mph /  30.6km/h 24% 0.00in /  0mm meteobridge W/m2
16:32 82.0 °F /  27.8 °C 41.7 °F /  5.4 °C 29.49in /  998.5hPa South 6.0mph /  9.7km/h 13.0mph /  20.9km/h 24% 0.00in /  0mm meteobridge W/m2
16:45 82.6 °F /  28.1 °C 42.1 °F /  5.6 °C 29.49in /  998.5hPa SE 10.1mph /  16.3km/h 13.0mph /  20.9km/h 24% 0.00in /  0mm meteobridge W/m2
16:51 82.2 °F /  27.9 °C 40.8 °F /  4.9 °C 29.48in /  998.2hPa SSE 8.1mph /  13km/h 20.0mph /  32.2km/h 23% 0.00in /  0mm meteobridge W/m2
16:57 81.9 °F /  27.7 °C 41.5 °F /  5.3 °C 29.49in /  998.5hPa SSE 6.9mph /  11.1km/h 17.0mph /  27.4km/h 24% 0.00in /  0mm meteobridge W/m2
17:03 81.3 °F /  27.4 °C 42.1 °F /  5.6 °C 29.49in /  998.5hPa South 8.9mph /  14.3km/h 19.0mph /  30.6km/h 25% 0.00in /  0mm meteobridge W/m2
17:09 80.8 °F /  27.1 °C 41.7 °F /  5.4 °C 29.49in /  998.5hPa SE 4.0mph /  6.4km/h 15.0mph /  24.1km/h 25% 0.00in /  0mm meteobridge W/m2
17:15 81.7 °F /  27.6 °C 41.4 °F /  5.2 °C 29.49in /  998.5hPa South 8.9mph /  14.3km/h 17.0mph /  27.4km/h 24% 0.00in /  0mm meteobridge W/m2
17:22 81.5 °F /  27.5 °C 42.3 °F /  5.7 °C 29.49in /  998.5hPa SSE 6.0mph /  9.7km/h 11.0mph /  17.7km/h 25% 0.00in /  0mm meteobridge W/m2
17:28 81.7 °F /  27.6 °C 41.4 °F /  5.2 °C 29.49in /  998.5hPa South 15.0mph /  24.1km/h 15.0mph /  24.1km/h 24% 0.00in /  0mm meteobridge W/m2
17:34 80.8 °F /  27.1 °C 40.6 °F /  4.8 °C 29.49in /  998.5hPa SSE 13.0mph /  20.9km/h 17.0mph /  27.4km/h 24% 0.00in /  0mm meteobridge W/m2
17:40 80.6 °F /  27 °C 40.5 °F /  4.7 °C 29.49in /  998.5hPa SSW 16.1mph /  25.9km/h 16.1mph /  25.9km/h 24% 0.00in /  0mm meteobridge W/m2
17:46 81.3 °F /  27.4 °C 39.9 °F /  4.4 °C 29.49in /  998.5hPa SSE 14.1mph /  22.7km/h 16.0mph /  25.7km/h 23% 0.00in /  0mm meteobridge W/m2
17:52 81.1 °F /  27.3 °C 39.7 °F /  4.3 °C 29.50in /  998.9hPa South 8.1mph /  13km/h 13.0mph /  20.9km/h 23% 0.00in /  0mm meteobridge W/m2
18:04 81.1 °F /  27.3 °C 39.7 °F /  4.3 °C 29.50in /  998.9hPa South 8.9mph /  14.3km/h 15.0mph /  24.1km/h 23% 0.00in /  0mm meteobridge W/m2
18:10 80.8 °F /  27.1 °C 39.6 °F /  4.2 °C 29.50in /  998.9hPa South 12.1mph /  19.5km/h 14.0mph /  22.5km/h 23% 0.00in /  0mm meteobridge W/m2
18:16 80.1 °F /  26.7 °C 40.1 °F /  4.5 °C 29.50in /  998.9hPa SSE 10.1mph /  16.3km/h 11.0mph /  17.7km/h 24% 0.00in /  0mm meteobridge W/m2
18:22 79.3 °F /  26.3 °C 39.4 °F /  4.1 °C 29.51in /  999.2hPa South 4.0mph /  6.4km/h 11.0mph /  17.7km/h 24% 0.00in /  0mm meteobridge W/m2
18:28 79.3 °F /  26.3 °C 38.3 °F /  3.5 °C 29.51in /  999.2hPa SSE 14.1mph /  22.7km/h 16.0mph /  25.7km/h 23% 0.00in /  0mm meteobridge W/m2
18:34 79.2 °F /  26.2 °C 38.1 °F /  3.4 °C 29.51in /  999.2hPa SSE 14.1mph /  22.7km/h 14.1mph /  22.7km/h 23% 0.00in /  0mm meteobridge W/m2
18:40 78.4 °F /  25.8 °C 37.6 °F /  3.1 °C 29.51in /  999.2hPa South 16.1mph /  25.9km/h 16.1mph /  25.9km/h 23% 0.00in /  0mm meteobridge W/m2
18:52 77.7 °F /  25.4 °C 37.0 °F /  2.8 °C 29.52in /  999.5hPa SSE 8.9mph /  14.3km/h 19.0mph /  30.6km/h 23% 0.00in /  0mm meteobridge W/m2
19:04 76.5 °F /  24.7 °C 37.0 °F /  2.8 °C 29.53in /  999.9hPa SSE 10.1mph /  16.3km/h 15.0mph /  24.1km/h 24% 0.00in /  0mm meteobridge W/m2
19:10 75.9 °F /  24.4 °C 37.6 °F /  3.1 °C 29.53in /  999.9hPa South 6.0mph /  9.7km/h 15.0mph /  24.1km/h 25% 0.00in /  0mm meteobridge W/m2
19:16 75.7 °F /  24.3 °C 37.4 °F /  3 °C 29.53in /  999.9hPa SSW 13.0mph /  20.9km/h 16.0mph /  25.7km/h 25% 0.00in /  0mm meteobridge W/m2
19:22 75.0 °F /  23.9 °C 37.8 °F /  3.2 °C 29.53in /  999.9hPa SSW 10.1mph /  16.3km/h 16.0mph /  25.7km/h 26% 0.00in /  0mm meteobridge W/m2
19:28 74.5 °F /  23.6 °C 38.3 °F /  3.5 °C 29.53in /  999.9hPa SSE 6.9mph /  11.1km/h 14.0mph /  22.5km/h 27% 0.00in /  0mm meteobridge W/m2
19:35 74.1 °F /  23.4 °C 37.9 °F /  3.3 °C 29.53in /  999.9hPa South 6.0mph /  9.7km/h 6.0mph /  9.7km/h 27% 0.00in /  0mm meteobridge W/m2
19:41 74.1 °F /  23.4 °C 37.9 °F /  3.3 °C 29.54in /  1000.2hPa South 6.0mph /  9.7km/h -999.0mph /  -1607.7km/h 27% 0.00in /  0mm meteobridge W/m2
19:47 74.1 °F /  23.4 °C 37.9 °F /  3.3 °C 29.54in /  1000.2hPa North -999.9mph /  -1609.1km/h -999.0mph /  -1607.7km/h 27% 0.00in /  0mm meteobridge W/m2
19:52 74.1 °F /  23.4 °C 37.9 °F /  3.3 °C 29.54in /  1000.2hPa North -999.9mph /  -1609.1km/h -999.0mph /  -1607.7km/h 27% 0.00in /  0mm meteobridge W/m2
Regenstein, Windhoek, Namibia
Compliments of Weather Underground - 2.5 mb